sensor_id;sensor_type;location;lat;lon;timestamp;pressure;altitude;pressure_sealevel;temperature;humidity
13050;BME280;6591;51.446;5.404;2024-01-30T00:01:57;102303.81;;;14.16;55.64
13050;BME280;6591;51.446;5.404;2024-01-30T00:04:24;102306.53;;;14.15;55.45
13050;BME280;6591;51.446;5.404;2024-01-30T00:06:51;102308.31;;;14.14;55.36
13050;BME280;6591;51.446;5.404;2024-01-30T00:13:55;102313.31;;;14.00;55.81
13050;BME280;6591;51.446;5.404;2024-01-30T00:16:27;102307.97;;;14.00;55.85
13050;BME280;6591;51.446;5.404;2024-01-30T00:18:54;102309.66;;;14.03;55.82
13050;BME280;6591;51.446;5.404;2024-01-30T00:21:24;102304.25;;;14.04;56.10
13050;BME280;6591;51.446;5.404;2024-01-30T00:23:52;102303.31;;;14.05;55.71
13050;BME280;6591;51.446;5.404;2024-01-30T00:26:19;102306.84;;;14.07;55.87
13050;BME280;6591;51.446;5.404;2024-01-30T00:28:47;102304.16;;;14.07;55.88
13050;BME280;6591;51.446;5.404;2024-01-30T00:31:14;102298.81;;;14.07;56.05
13050;BME280;6591;51.446;5.404;2024-01-30T00:33:42;102300.53;;;14.08;55.82
13050;BME280;6591;51.446;5.404;2024-01-30T00:36:10;102302.28;;;14.09;55.75
13050;BME280;6591;51.446;5.404;2024-01-30T00:38:37;102293.47;;;14.07;56.04
13050;BME280;6591;51.446;5.404;2024-01-30T00:41:05;102302.28;;;14.09;55.64
13050;BME280;6591;51.446;5.404;2024-01-30T00:43:32;102300.50;;;14.10;55.69
13050;BME280;6591;51.446;5.404;2024-01-30T00:45:59;102297.81;;;14.10;56.06
13050;BME280;6591;51.446;5.404;2024-01-30T00:48:26;102294.28;;;14.09;55.86
13050;BME280;6591;51.446;5.404;2024-01-30T00:50:53;102293.34;;;14.10;55.87
13050;BME280;6591;51.446;5.404;2024-01-30T00:53:20;102289.75;;;14.11;55.83
13050;BME280;6591;51.446;5.404;2024-01-30T00:55:49;102291.50;;;14.12;56.05
13050;BME280;6591;51.446;5.404;2024-01-30T00:58:16;102290.63;;;14.12;56.24
13050;BME280;6591;51.446;5.404;2024-01-30T01:00:44;102280.88;;;14.11;56.06
13050;BME280;6591;51.446;5.404;2024-01-30T01:03:11;102286.09;;;14.14;56.05
13050;BME280;6591;51.446;5.404;2024-01-30T01:05:38;102280.81;;;14.12;56.19
13050;BME280;6591;51.446;5.404;2024-01-30T01:08:06;102286.97;;;14.14;56.23
13050;BME280;6591;51.446;5.404;2024-01-30T01:10:33;102280.69;;;14.15;55.93
13050;BME280;6591;51.446;5.404;2024-01-30T01:13:00;102286.00;;;14.17;56.28
13050;BME280;6591;51.446;5.404;2024-01-30T01:15:27;102278.72;;;14.20;56.29
13050;BME280;6591;51.446;5.404;2024-01-30T01:17:56;102277.66;;;14.24;56.11
13050;BME280;6591;51.446;5.404;2024-01-30T01:20:23;102273.16;;;14.26;56.12
13050;BME280;6591;51.446;5.404;2024-01-30T01:22:50;102280.16;;;14.29;56.42
13050;BME280;6591;51.446;5.404;2024-01-30T01:25:19;102274.69;;;14.33;56.54
13050;BME280;6591;51.446;5.404;2024-01-30T01:27:46;102275.47;;;14.35;56.38
13050;BME280;6591;51.446;5.404;2024-01-30T01:30:18;102271.78;;;14.39;56.47
13050;BME280;6591;51.446;5.404;2024-01-30T01:32:49;102272.56;;;14.43;56.47
13050;BME280;6591;51.446;5.404;2024-01-30T01:35:24;102270.63;;;14.47;56.53
13050;BME280;6591;51.446;5.404;2024-01-30T01:37:52;102272.25;;;14.51;56.28
13050;BME280;6591;51.446;5.404;2024-01-30T01:40:23;102269.38;;;14.55;57.01
13050;BME280;6591;51.446;5.404;2024-01-30T01:42:51;102271.91;;;14.60;56.56
13050;BME280;6591;51.446;5.404;2024-01-30T01:45:20;102264.59;;;14.65;56.60
13050;BME280;6591;51.446;5.404;2024-01-30T01:47:52;102255.50;;;14.69;56.29
13050;BME280;6591;51.446;5.404;2024-01-30T01:50:21;102260.66;;;14.73;56.49
13050;BME280;6591;51.446;5.404;2024-01-30T01:52:50;102253.38;;;14.77;56.25
13050;BME280;6591;51.446;5.404;2024-01-30T01:55:21;102251.47;;;14.80;56.38
13050;BME280;6591;51.446;5.404;2024-01-30T01:57:50;102251.34;;;14.83;56.24
13050;BME280;6591;51.446;5.404;2024-01-30T02:00:18;102247.69;;;14.86;56.12
13050;BME280;6591;51.446;5.404;2024-01-30T02:02:46;102248.47;;;14.88;55.95
13050;BME280;6591;51.446;5.404;2024-01-30T02:05:15;102246.63;;;14.90;55.88
13050;BME280;6591;51.446;5.404;2024-01-30T02:07:43;102248.38;;;14.91;55.96
13050;BME280;6591;51.446;5.404;2024-01-30T02:10:11;102243.84;;;14.92;55.81
13050;BME280;6591;51.446;5.404;2024-01-30T02:12:38;102243.03;;;14.91;55.62
13050;BME280;6591;51.446;5.404;2024-01-30T02:15:06;102247.50;;;14.91;56.10
13050;BME280;6591;51.446;5.404;2024-01-30T02:17:34;102245.75;;;14.90;56.02
13050;BME280;6591;51.446;5.404;2024-01-30T02:20:01;102245.75;;;14.90;55.79
13050;BME280;6591;51.446;5.404;2024-01-30T02:22:33;102249.41;;;14.87;55.49
13050;BME280;6591;51.446;5.404;2024-01-30T02:25:02;102250.22;;;14.89;55.69
13050;BME280;6591;51.446;5.404;2024-01-30T02:27:29;102244.88;;;14.89;55.93
13050;BME280;6591;51.446;5.404;2024-01-30T02:29:56;102238.69;;;14.87;55.94
13050;BME280;6591;51.446;5.404;2024-01-30T02:32:23;102232.44;;;14.88;55.70
13050;BME280;6591;51.446;5.404;2024-01-30T02:34:50;102234.16;;;14.89;55.75
13050;BME280;6591;51.446;5.404;2024-01-30T02:37:18;102231.50;;;14.89;55.89
13050;BME280;6591;51.446;5.404;2024-01-30T02:39:45;102234.13;;;14.91;55.94
13050;BME280;6591;51.446;5.404;2024-01-30T02:42:12;102239.38;;;14.92;56.06
13050;BME280;6591;51.446;5.404;2024-01-30T02:44:39;102230.44;;;14.93;55.91
13050;BME280;6591;51.446;5.404;2024-01-30T02:47:06;102238.34;;;14.96;55.92
13050;BME280;6591;51.446;5.404;2024-01-30T02:49:33;102243.69;;;14.96;56.05
13050;BME280;6591;51.446;5.404;2024-01-30T02:52:00;102236.47;;;14.98;55.91
13050;BME280;6591;51.446;5.404;2024-01-30T02:54:27;102237.28;;;15.00;55.80
13050;BME280;6591;51.446;5.404;2024-01-30T02:56:54;102235.41;;;15.02;55.82
13050;BME280;6591;51.446;5.404;2024-01-30T02:59:24;102234.47;;;15.03;55.89
13050;BME280;6591;51.446;5.404;2024-01-30T03:01:51;102240.63;;;15.05;56.08
13050;BME280;6591;51.446;5.404;2024-01-30T03:04:18;102226.34;;;15.06;55.76
13050;BME280;6591;51.446;5.404;2024-01-30T03:06:46;102234.28;;;15.08;55.91
13050;BME280;6591;51.446;5.404;2024-01-30T03:09:18;102228.06;;;15.07;55.66
13050;BME280;6591;51.446;5.404;2024-01-30T03:11:45;102219.09;;;15.08;55.52
13050;BME280;6591;51.446;5.404;2024-01-30T03:14:12;102226.25;;;15.08;55.42
13050;BME280;6591;51.446;5.404;2024-01-30T03:16:40;102216.50;;;15.07;55.46
13050;BME280;6591;51.446;5.404;2024-01-30T03:19:07;102205.84;;;15.05;55.39
13050;BME280;6591;51.446;5.404;2024-01-30T03:21:36;102210.34;;;15.05;55.51
13050;BME280;6591;51.446;5.404;2024-01-30T03:24:03;102208.66;;;15.02;55.24
13050;BME280;6591;51.446;5.404;2024-01-30T03:26:30;102213.22;;;15.00;55.37
13050;BME280;6591;51.446;5.404;2024-01-30T03:28:57;102202.56;;;14.99;55.54
13050;BME280;6591;51.446;5.404;2024-01-30T03:31:25;102202.72;;;14.96;55.40
13050;BME280;6591;51.446;5.404;2024-01-30T03:33:52;102204.50;;;14.95;55.51
13050;BME280;6591;51.446;5.404;2024-01-30T03:36:20;102207.28;;;14.92;55.19
13050;BME280;6591;51.446;5.404;2024-01-30T03:38:47;102212.72;;;14.91;55.58
13050;BME280;6591;51.446;5.404;2024-01-30T03:41:14;102208.31;;;14.90;55.62
13050;BME280;6591;51.446;5.404;2024-01-30T03:43:41;102204.75;;;14.89;55.64
13050;BME280;6591;51.446;5.404;2024-01-30T03:46:08;102208.31;;;14.90;56.04
13050;BME280;6591;51.446;5.404;2024-01-30T03:48:36;102210.09;;;14.89;55.59
13050;BME280;6591;51.446;5.404;2024-01-30T03:51:03;102213.59;;;14.91;55.64
13050;BME280;6591;51.446;5.404;2024-01-30T03:53:30;102209.97;;;14.92;56.03
13050;BME280;6591;51.446;5.404;2024-01-30T03:55:58;102214.34;;;14.95;55.90
13050;BME280;6591;51.446;5.404;2024-01-30T03:58:25;102217.81;;;14.97;55.84
13050;BME280;6591;51.446;5.404;2024-01-30T04:00:52;102210.59;;;14.99;55.72
13050;BME280;6591;51.446;5.404;2024-01-30T04:03:19;102217.53;;;15.03;56.14
13050;BME280;6591;51.446;5.404;2024-01-30T04:05:46;102210.28;;;15.06;56.02
13050;BME280;6591;51.446;5.404;2024-01-30T04:08:13;102217.34;;;15.07;55.98
13050;BME280;6591;51.446;5.404;2024-01-30T04:10:40;102217.19;;;15.12;56.13
13050;BME280;6591;51.446;5.404;2024-01-30T04:13:07;102218.84;;;15.14;55.98
13050;BME280;6591;51.446;5.404;2024-01-30T04:15:39;102208.03;;;15.17;56.06
13050;BME280;6591;51.446;5.404;2024-01-30T04:18:06;102208.69;;;15.22;55.77
13050;BME280;6591;51.446;5.404;2024-01-30T04:20:34;102212.97;;;15.26;56.02
13050;BME280;6591;51.446;5.404;2024-01-30T04:23:01;102199.53;;;15.28;55.88
13050;BME280;6591;51.446;5.404;2024-01-30T04:25:29;102199.34;;;15.33;55.83
13050;BME280;6591;51.446;5.404;2024-01-30T04:27:56;102200.06;;;15.36;55.79
13050;BME280;6591;51.446;5.404;2024-01-30T04:30:23;102204.41;;;15.39;55.96
13050;BME280;6591;51.446;5.404;2024-01-30T04:32:50;102198.94;;;15.42;56.06
13050;BME280;6591;51.446;5.404;2024-01-30T04:35:17;102196.09;;;15.45;55.93
13050;BME280;6591;51.446;5.404;2024-01-30T04:37:47;102188.91;;;15.47;55.99
13050;BME280;6591;51.446;5.404;2024-01-30T04:40:14;102190.50;;;15.51;56.00
13050;BME280;6591;51.446;5.404;2024-01-30T04:42:41;102186.75;;;15.55;56.09
13050;BME280;6591;51.446;5.404;2024-01-30T04:45:09;102184.84;;;15.58;55.93
13050;BME280;6591;51.446;5.404;2024-01-30T04:47:36;102188.31;;;15.60;55.78
13050;BME280;6591;51.446;5.404;2024-01-30T04:50:03;102175.66;;;15.64;55.75
13050;BME280;6591;51.446;5.404;2024-01-30T04:52:32;102171.09;;;15.66;55.84
13050;BME280;6591;51.446;5.404;2024-01-30T04:54:59;102167.44;;;15.68;56.00
13050;BME280;6591;51.446;5.404;2024-01-30T04:57:26;102162.00;;;15.70;55.65
13050;BME280;6591;51.446;5.404;2024-01-30T04:59:53;102162.78;;;15.72;55.96
13050;BME280;6591;51.446;5.404;2024-01-30T05:02:21;102164.53;;;15.73;55.95
13050;BME280;6591;51.446;5.404;2024-01-30T05:04:48;102168.88;;;15.76;55.95
13050;BME280;6591;51.446;5.404;2024-01-30T05:07:15;102170.63;;;15.77;55.83
13050;BME280;6591;51.446;5.404;2024-01-30T05:09:42;102167.00;;;15.78;55.83
13050;BME280;6591;51.446;5.404;2024-01-30T05:12:09;102170.50;;;15.80;55.59
13050;BME280;6591;51.446;5.404;2024-01-30T05:14:36;102178.44;;;15.81;55.65
13050;BME280;6591;51.446;5.404;2024-01-30T05:17:03;102170.41;;;15.81;55.82
13050;BME280;6591;51.446;5.404;2024-01-30T05:19:31;102180.13;;;15.84;55.49
13050;BME280;6591;51.446;5.404;2024-01-30T05:21:58;102177.44;;;15.84;55.64
13050;BME280;6591;51.446;5.404;2024-01-30T05:24:25;102179.03;;;15.88;55.65
13050;BME280;6591;51.446;5.404;2024-01-30T05:26:54;102171.94;;;15.87;55.66
13050;BME280;6591;51.446;5.404;2024-01-30T05:29:21;102170.94;;;15.89;55.74
13050;BME280;6591;51.446;5.404;2024-01-30T05:31:48;102168.19;;;15.91;55.65
13050;BME280;6591;51.446;5.404;2024-01-30T05:34:16;102172.53;;;15.93;55.45
13050;BME280;6591;51.446;5.404;2024-01-30T05:36:43;102169.84;;;15.93;55.32
13050;BME280;6591;51.446;5.404;2024-01-30T05:39:10;102165.34;;;15.94;55.27
13050;BME280;6591;51.446;5.404;2024-01-30T05:41:37;102167.97;;;15.95;55.64
13050;BME280;6591;51.446;5.404;2024-01-30T05:44:04;102165.34;;;15.94;55.72
13050;BME280;6591;51.446;5.404;2024-01-30T05:46:31;102162.47;;;15.98;55.55
13050;BME280;6591;51.446;5.404;2024-01-30T05:48:59;102175.78;;;16.00;55.65
13050;BME280;6591;51.446;5.404;2024-01-30T05:51:26;102174.75;;;16.02;55.73
13050;BME280;6591;51.446;5.404;2024-01-30T05:53:53;102179.19;;;16.03;55.67
13050;BME280;6591;51.446;5.404;2024-01-30T05:56:21;102179.06;;;16.06;55.66
13050;BME280;6591;51.446;5.404;2024-01-30T05:58:48;102175.34;;;16.09;55.74
13050;BME280;6591;51.446;5.404;2024-01-30T06:01:17;102176.16;;;16.11;55.97
13050;BME280;6591;51.446;5.404;2024-01-30T06:03:44;102170.66;;;16.14;55.56
13050;BME280;6591;51.446;5.404;2024-01-30T06:06:11;102171.47;;;16.16;55.75
13050;BME280;6591;51.446;5.404;2024-01-30T06:08:38;102175.72;;;16.20;55.52
13050;BME280;6591;51.446;5.404;2024-01-30T06:11:05;102172.13;;;16.21;55.60
13050;BME280;6591;51.446;5.404;2024-01-30T06:13:32;102174.63;;;16.24;55.54
13050;BME280;6591;51.446;5.404;2024-01-30T06:15:59;102173.63;;;16.27;55.74
13050;BME280;6591;51.446;5.404;2024-01-30T06:18:27;102178.03;;;16.28;55.42
13050;BME280;6591;51.446;5.404;2024-01-30T06:20:56;102177.03;;;16.30;55.16
13050;BME280;6591;51.446;5.404;2024-01-30T06:23:23;102171.66;;;16.30;55.70
13050;BME280;6591;51.446;5.404;2024-01-30T06:25:50;102176.03;;;16.33;55.45
13050;BME280;6591;51.446;5.404;2024-01-30T06:28:17;102176.03;;;16.33;55.36
13050;BME280;6591;51.446;5.404;2024-01-30T06:30:46;102181.28;;;16.34;55.62
13050;BME280;6591;51.446;5.404;2024-01-30T06:33:13;102185.72;;;16.35;55.60
13050;BME280;6591;51.446;5.404;2024-01-30T06:35:41;102183.91;;;16.36;55.30
13050;BME280;6591;51.446;5.404;2024-01-30T06:38:11;102186.59;;;16.36;55.28
13050;BME280;6591;51.446;5.404;2024-01-30T06:40:38;102188.25;;;16.38;55.42
13050;BME280;6591;51.446;5.404;2024-01-30T06:43:05;102192.66;;;16.39;55.25
13050;BME280;6591;51.446;5.404;2024-01-30T06:45:32;102188.97;;;16.42;55.64
13050;BME280;6591;51.446;5.404;2024-01-30T06:47:59;102195.13;;;16.44;55.18
13050;BME280;6591;51.446;5.404;2024-01-30T06:50:27;102190.56;;;16.46;55.49
13050;BME280;6591;51.446;5.404;2024-01-30T06:52:54;102206.59;;;16.47;55.30
13050;BME280;6591;51.446;5.404;2024-01-30T06:55:21;102204.78;;;16.48;55.34
13050;BME280;6591;51.446;5.404;2024-01-30T06:57:48;102207.47;;;16.48;55.77
13050;BME280;6591;51.446;5.404;2024-01-30T07:00:17;102209.97;;;16.51;55.33
13050;BME280;6591;51.446;5.404;2024-01-30T07:02:47;102209.97;;;16.51;55.09
13050;BME280;6591;51.446;5.404;2024-01-30T07:05:14;102216.16;;;16.53;55.17
13050;BME280;6591;51.446;5.404;2024-01-30T07:07:42;102214.25;;;16.55;55.85
13050;BME280;6591;51.446;5.404;2024-01-30T07:10:09;102227.53;;;16.58;55.43
13050;BME280;6591;51.446;5.404;2024-01-30T07:12:36;102234.63;;;16.59;55.44
13050;BME280;6591;51.446;5.404;2024-01-30T07:15:05;102232.75;;;16.61;55.12
13050;BME280;6591;51.446;5.404;2024-01-30T07:17:35;102239.00;;;16.62;55.42
13050;BME280;6591;51.446;5.404;2024-01-30T07:20:02;102228.22;;;16.63;55.37
13050;BME280;6591;51.446;5.404;2024-01-30T07:22:33;102238.78;;;16.66;54.87
13050;BME280;6591;51.446;5.404;2024-01-30T07:25:01;102244.13;;;16.66;55.08
13050;BME280;6591;51.446;5.404;2024-01-30T07:27:28;102238.72;;;16.68;55.39
13050;BME280;6591;51.446;5.404;2024-01-30T07:29:55;102256.44;;;16.70;55.56
13050;BME280;6591;51.446;5.404;2024-01-30T07:32:22;102246.53;;;16.72;55.58
13050;BME280;6591;51.446;5.404;2024-01-30T07:34:50;102255.38;;;16.74;55.44
13050;BME280;6591;51.446;5.404;2024-01-30T07:37:33;102246.53;;;16.72;54.93
13050;BME280;6591;51.446;5.404;2024-01-30T07:40:02;102250.97;;;16.73;54.91
13050;BME280;6591;51.446;5.404;2024-01-30T07:42:31;102259.94;;;16.72;55.27
13050;BME280;6591;51.446;5.404;2024-01-30T07:44:58;102250.97;;;16.73;55.21
13050;BME280;6591;51.446;5.404;2024-01-30T07:47:25;102253.63;;;16.73;55.20
13050;BME280;6591;51.446;5.404;2024-01-30T07:49:52;102254.50;;;16.74;55.03
13050;BME280;6591;51.446;5.404;2024-01-30T07:52:21;102258.06;;;16.74;55.26
13050;BME280;6591;51.446;5.404;2024-01-30T07:54:49;102261.53;;;16.76;55.39
13050;BME280;6591;51.446;5.404;2024-01-30T07:57:17;102266.91;;;16.76;55.33
13050;BME280;6591;51.446;5.404;2024-01-30T07:59:45;102270.38;;;16.78;55.10
13050;BME280;6591;51.446;5.404;2024-01-30T08:02:13;102272.13;;;16.79;55.64
13050;BME280;6591;51.446;5.404;2024-01-30T08:04:40;102278.28;;;16.81;55.81
13050;BME280;6591;51.446;5.404;2024-01-30T08:07:08;102270.09;;;16.84;55.51
13050;BME280;6591;51.446;5.404;2024-01-30T08:09:35;102277.97;;;16.87;55.51
13050;BME280;6591;51.446;5.404;2024-01-30T08:12:03;102280.50;;;16.90;55.47
13050;BME280;6591;51.446;5.404;2024-01-30T08:14:30;102284.06;;;16.91;55.53
13050;BME280;6591;51.446;5.404;2024-01-30T08:16:57;102282.13;;;16.94;55.76
13050;BME280;6591;51.446;5.404;2024-01-30T08:19:24;102283.69;;;16.99;55.61
13050;BME280;6591;51.446;5.404;2024-01-30T08:21:52;102277.28;;;17.01;55.44
13050;BME280;6591;51.446;5.404;2024-01-30T08:24:21;102285.22;;;17.04;55.52
13050;BME280;6591;51.446;5.404;2024-01-30T08:26:48;102282.31;;;17.09;55.71
13050;BME280;6591;51.446;5.404;2024-01-30T08:29:15;102284.69;;;17.15;55.77
13050;BME280;6591;51.446;5.404;2024-01-30T08:31:45;102284.38;;;17.21;55.60
13050;BME280;6591;51.446;5.404;2024-01-30T08:34:13;102286.78;;;17.27;55.88
13050;BME280;6591;51.446;5.404;2024-01-30T08:36:40;102281.06;;;17.33;55.99
13050;BME280;6591;51.446;5.404;2024-01-30T08:39:08;102278.06;;;17.39;55.84
13050;BME280;6591;51.446;5.404;2024-01-30T08:41:35;102284.81;;;17.48;56.07
13050;BME280;6591;51.446;5.404;2024-01-30T08:44:02;102283.53;;;17.55;56.08
13050;BME280;6591;51.446;5.404;2024-01-30T08:46:33;102276.94;;;17.62;55.78
13050;BME280;6591;51.446;5.404;2024-01-30T08:49:01;102288.16;;;17.70;55.71
13050;BME280;6591;51.446;5.404;2024-01-30T08:51:28;102279.72;;;17.77;55.55
13050;BME280;6591;51.446;5.404;2024-01-30T08:53:55;102278.44;;;17.85;55.81
13050;BME280;6591;51.446;5.404;2024-01-30T08:56:23;102280.78;;;17.91;56.06
13050;BME280;6591;51.446;5.404;2024-01-30T08:58:50;102278.72;;;17.96;55.55
13050;BME280;6591;51.446;5.404;2024-01-30T09:01:18;102274.75;;;18.03;55.72
13050;BME280;6591;51.446;5.404;2024-01-30T09:03:47;102269.06;;;18.09;55.29
13050;BME280;6591;51.446;5.404;2024-01-30T09:06:14;102271.44;;;18.15;55.75
13050;BME280;6591;51.446;5.404;2024-01-30T09:08:41;102279.16;;;18.21;55.45
13050;BME280;6591;51.446;5.404;2024-01-30T09:11:13;102284.28;;;18.26;55.47
13050;BME280;6591;51.446;5.404;2024-01-30T09:13:40;102274.16;;;18.31;55.30
13050;BME280;6591;51.446;5.404;2024-01-30T09:16:07;102294.47;;;18.36;55.11
13050;BME280;6591;51.446;5.404;2024-01-30T09:18:35;102288.72;;;18.42;55.18
13050;BME280;6591;51.446;5.404;2024-01-30T09:21:02;102289.28;;;18.49;55.09
13050;BME280;6591;51.446;5.404;2024-01-30T09:23:29;102290.00;;;18.52;55.06
13050;BME280;6591;51.446;5.404;2024-01-30T09:25:56;102296.78;;;18.59;55.26
13050;BME280;6591;51.446;5.404;2024-01-30T09:28:24;102298.34;;;18.63;55.07
13050;BME280;6591;51.446;5.404;2024-01-30T09:30:53;102293.56;;;18.69;54.93
13050;BME280;6591;51.446;5.404;2024-01-30T09:33:23;102299.50;;;18.75;54.87
13050;BME280;6591;51.446;5.404;2024-01-30T09:35:50;102288.47;;;18.80;55.15
13050;BME280;6591;51.446;5.404;2024-01-30T09:38:18;102305.31;;;18.83;54.70
13050;BME280;6591;51.446;5.404;2024-01-30T09:40:54;102297.13;;;18.85;54.60
13050;BME280;6591;51.446;5.404;2024-01-30T09:43:23;102314.69;;;18.92;54.76
13050;BME280;6591;51.446;5.404;2024-01-30T09:45:55;102309.91;;;18.97;54.55
13050;BME280;6591;51.446;5.404;2024-01-30T09:48:24;102309.66;;;19.01;54.70
13050;BME280;6591;51.446;5.404;2024-01-30T09:50:53;102321.03;;;19.07;54.83
13050;BME280;6591;51.446;5.404;2024-01-30T09:53:22;102322.50;;;19.12;54.34
13050;BME280;6591;51.446;5.404;2024-01-30T09:55:50;102326.75;;;19.16;54.57
13050;BME280;6591;51.446;5.404;2024-01-30T09:58:17;102327.53;;;19.18;54.16
13050;BME280;6591;51.446;5.404;2024-01-30T10:00:47;102327.28;;;19.23;54.42
13050;BME280;6591;51.446;5.404;2024-01-30T10:03:14;102328.06;;;19.25;54.65
13050;BME280;6591;51.446;5.404;2024-01-30T10:05:51;102320.75;;;19.27;54.21
13050;BME280;6591;51.446;5.404;2024-01-30T10:08:22;102319.53;;;19.32;54.38
13050;BME280;6591;51.446;5.404;2024-01-30T10:10:50;102311.09;;;19.38;54.37
13050;BME280;6591;51.446;5.404;2024-01-30T10:13:17;102327.84;;;19.43;54.15
13050;BME280;6591;51.446;5.404;2024-01-30T10:15:48;102328.56;;;19.47;53.84
13050;BME280;6591;51.446;5.404;2024-01-30T10:18:15;102331.19;;;19.49;53.81
13050;BME280;6591;51.446;5.404;2024-01-30T10:20:42;102329.28;;;19.51;53.85
13050;BME280;6591;51.446;5.404;2024-01-30T10:23:09;102329.94;;;19.54;53.94
13050;BME280;6591;51.446;5.404;2024-01-30T10:25:37;102341.53;;;19.56;53.86
13050;BME280;6591;51.446;5.404;2024-01-30T10:28:05;102338.63;;;19.59;53.68
13050;BME280;6591;51.446;5.404;2024-01-30T10:30:33;102336.88;;;19.58;53.74
13050;BME280;6591;51.446;5.404;2024-01-30T10:33:00;102342.28;;;19.58;53.49
13050;BME280;6591;51.446;5.404;2024-01-30T10:35:27;102344.88;;;19.60;53.64
13050;BME280;6591;51.446;5.404;2024-01-30T10:37:57;102343.00;;;19.62;53.68
13050;BME280;6591;51.446;5.404;2024-01-30T10:40:28;102347.50;;;19.61;52.85
13050;BME280;6591;51.446;5.404;2024-01-30T10:42:56;102355.47;;;19.63;53.40
13050;BME280;6591;51.446;5.404;2024-01-30T10:45:37;102349.50;;;19.58;53.28
13050;BME280;6591;51.446;5.404;2024-01-30T10:48:09;102347.66;;;19.58;53.20
13050;BME280;6591;51.446;5.404;2024-01-30T10:50:40;102345.97;;;19.57;53.47
13050;BME280;6591;51.446;5.404;2024-01-30T10:53:18;102346.78;;;19.58;53.56
13050;BME280;6591;51.446;5.404;2024-01-30T10:55:51;102344.09;;;19.58;53.43
13050;BME280;6591;51.446;5.404;2024-01-30T10:58:22;102350.19;;;19.61;53.42
13050;BME280;6591;51.446;5.404;2024-01-30T11:00:51;102350.72;;;19.68;53.83
13050;BME280;6591;51.446;5.404;2024-01-30T11:03:19;102361.09;;;19.74;53.98
13050;BME280;6591;51.446;5.404;2024-01-30T11:05:50;102353.59;;;19.79;53.70
13050;BME280;6591;51.446;5.404;2024-01-30T11:08:25;102348.13;;;19.80;53.35
13050;BME280;6591;51.446;5.404;2024-01-30T11:10:56;102343.41;;;19.84;53.09
13050;BME280;6591;51.446;5.404;2024-01-30T11:13:31;102347.84;;;19.85;52.92
13050;BME280;6591;51.446;5.404;2024-01-30T11:16:05;102348.81;;;19.84;53.00
13050;BME280;6591;51.446;5.404;2024-01-30T11:18:35;102355.94;;;19.85;52.79
13050;BME280;6591;51.446;5.404;2024-01-30T11:21:05;102348.81;;;19.84;52.83
13050;BME280;6591;51.446;5.404;2024-01-30T11:23:34;102354.41;;;19.81;52.91
13050;BME280;6591;51.446;5.404;2024-01-30T11:26:04;102355.44;;;19.78;52.89
13050;BME280;6591;51.446;5.404;2024-01-30T11:28:33;102350.25;;;19.75;52.94
13050;BME280;6591;51.446;5.404;2024-01-30T11:31:07;102356.59;;;19.74;52.97
13050;BME280;6591;51.446;5.404;2024-01-30T11:33:34;102352.84;;;19.77;52.90
13050;BME280;6591;51.446;5.404;2024-01-30T11:36:04;102345.63;;;19.77;53.18
13050;BME280;6591;51.446;5.404;2024-01-30T11:38:34;102343.69;;;19.79;52.97
13050;BME280;6591;51.446;5.404;2024-01-30T11:41:03;102343.63;;;19.81;52.62
13050;BME280;6591;51.446;5.404;2024-01-30T11:43:31;102340.34;;;19.76;52.07
13050;BME280;6591;51.446;5.404;2024-01-30T11:46:00;102346.88;;;19.72;52.17
13050;BME280;6591;51.446;5.404;2024-01-30T11:48:27;102346.28;;;19.67;52.07
13050;BME280;6591;51.446;5.404;2024-01-30T11:50:55;102339.31;;;19.63;52.05
13050;BME280;6591;51.446;5.404;2024-01-30T11:53:22;102351.06;;;19.62;52.33
13050;BME280;6591;51.446;5.404;2024-01-30T11:55:50;102352.97;;;19.60;52.16
13050;BME280;6591;51.446;5.404;2024-01-30T11:58:18;102347.00;;;19.55;51.65
13050;BME280;6591;51.446;5.404;2024-01-30T12:00:56;102359.06;;;19.48;51.48
13050;BME280;6591;51.446;5.404;2024-01-30T12:03:24;102368.25;;;19.43;51.35
13050;BME280;6591;51.446;5.404;2024-01-30T12:05:56;102367.84;;;19.35;51.28
13050;BME280;6591;51.446;5.404;2024-01-30T12:08:26;102368.97;;;19.31;51.16
13050;BME280;6591;51.446;5.404;2024-01-30T12:10:58;102372.03;;;19.25;50.62
13050;BME280;6591;51.446;5.404;2024-01-30T12:13:28;102362.47;;;19.20;51.23
13050;BME280;6591;51.446;5.404;2024-01-30T12:16:00;102368.72;;;19.20;51.13
13050;BME280;6591;51.446;5.404;2024-01-30T12:18:28;102358.84;;;19.21;51.86
13050;BME280;6591;51.446;5.404;2024-01-30T12:21:01;102362.56;;;19.18;51.29
13050;BME280;6591;51.446;5.404;2024-01-30T12:23:29;102371.31;;;19.22;51.61
13050;BME280;6591;51.446;5.404;2024-01-30T12:25:57;102391.91;;;19.23;50.69
13050;BME280;6591;51.446;5.404;2024-01-30T12:28:24;102384.91;;;19.20;49.69
13050;BME280;6591;51.446;5.404;2024-01-30T12:30:56;102381.31;;;19.20;49.78
13050;BME280;6591;51.446;5.404;2024-01-30T12:33:27;102377.41;;;19.25;49.86
13050;BME280;6591;51.446;5.404;2024-01-30T12:35:56;102395.06;;;19.31;49.32
13050;BME280;6591;51.446;5.404;2024-01-30T12:38:30;102398.34;;;19.36;48.81
13050;BME280;6591;51.446;5.404;2024-01-30T12:40:57;102397.13;;;19.41;48.70
13050;BME280;6591;51.446;5.404;2024-01-30T12:43:25;102391.59;;;19.44;48.54
13050;BME280;6591;51.446;5.404;2024-01-30T12:46:04;102405.94;;;19.45;48.37
13050;BME280;6591;51.446;5.404;2024-01-30T12:48:32;102409.75;;;19.41;47.93
13050;BME280;6591;51.446;5.404;2024-01-30T12:51:00;102407.38;;;19.35;47.97
13050;BME280;6591;51.446;5.404;2024-01-30T12:53:28;102409.56;;;19.28;48.19
13050;BME280;6591;51.446;5.404;2024-01-30T12:55:55;102413.47;;;19.23;47.52
13050;BME280;6591;51.446;5.404;2024-01-30T12:58:22;102412.78;;;19.19;47.09
13050;BME280;6591;51.446;5.404;2024-01-30T13:00:49;102414.53;;;19.20;47.32
13050;BME280;6591;51.446;5.404;2024-01-30T13:03:17;102400.69;;;19.26;47.33
13050;BME280;6591;51.446;5.404;2024-01-30T13:05:44;102413.66;;;19.35;47.66
13050;BME280;6591;51.446;5.404;2024-01-30T13:08:11;102418.53;;;19.44;46.72
13050;BME280;6591;51.446;5.404;2024-01-30T13:10:38;102407.34;;;19.52;46.55